Flight Track Log - Related Links

Times and Time Zones

All times are in EDT time to prevent confusion due to time zone crossing. See the GJS3706 flight status page for this flight to view local times or setup timezone preferences in your user account.

Time Position Orientation Groundspeed Altitude Reporting Facility
EDT Latitude Longitude Course Direction KTS MPH feet Rate Location/Type
Tue 12:14:00 PM 44.4318 -73.5502 259° West  Level Estimated
Tue 12:15:00 PM 44.3997 -73.6760 250° West  Level FlightAware Approximate
Tue 12:15:28 PM 44.3044 -73.2233 266° West 216 249 8,700  Level Boston Center
Tue 12:16:00 PM 44.3860 -73.8081 255° West  Level Estimated
Tue 12:16:29 PM 44.2956 -73.3189 263° West 257 296 11,200  Level Boston Center
Tue 12:17:00 PM 44.3546 -73.9341 251° West  Level FlightAware Approximate
Tue 12:17:27 PM 44.2819 -73.4317 260° West 292 336 12,700  Level Boston Center
Tue 12:18:00 PM 44.3231 -74.0600 251° West  Level FlightAware Approximate
Tue 12:18:28 PM 44.2706 -73.5506 262° West 310 357 14,800  Level Boston Center
Tue 12:19:29 PM 44.2547 -73.6747 260° West 327 376 16,300 1,475 Climbing Boston Center
Tue 12:20:30 PM 44.2383 -73.8194 261° West 337 388 17,800 1,424 Climbing Boston Center
Tue 12:21:27 PM 44.2222 -73.9581 261° West 349 402 19,100 1,424 Climbing Boston Center
Tue 12:22:28 PM 44.2036 -74.0994 260° West 366 421 20,600 1,366 Climbing Boston Center
Tue 12:23:30 PM 44.1911 -74.2267 262° West 371 427 21,900 1,311 Climbing Boston Center
Tue 12:24:27 PM 44.1744 -74.3678 261° West 371 427 23,200 1,179 Climbing Boston Center
Tue 12:25:27 PM 44.1550 -74.5147 260° West 371 427 24,200 984 Climbing Boston Center
Tue 12:26:29 PM 44.1378 -74.6647 261° West 384 442 25,200 984 Climbing Boston Center
Tue 12:27:29 PM 44.1181 -74.8172 260° West 396 456 26,200 1,017 Climbing Boston Center
Tue 12:28:27 PM 44.0981 -74.9697 260° West 406 467 27,200 1,017 Climbing Boston Center
Tue 12:29:27 PM 44.0781 -75.1219 260° West 406 467 28,200 1,041 Climbing Boston Center
Tue 12:30:28 PM 44.0569 -75.2975 261° West 415 478 29,300 1,000 Climbing Boston Center
Tue 12:31:27 PM 44.0364 -75.4522 260° West 420 483 30,200 958 Climbing Boston Center
Tue 12:32:27 PM 44.0175 -75.6103 261° West 420 483 31,200 992 Climbing Boston Center
Tue 12:33:28 PM 43.9964 -75.7678 259° West 420 483 32,200 992 Climbing Boston Center
Tue 12:34:28 PM 43.9772 -75.9256 260° West 425 489 33,200 1,041 Climbing Boston Center
Tue 12:35:29 PM 43.9536 -76.0800 258° West 425 489 34,300 1,180 Climbing Boston Center
Tue 12:36:30 PM 43.9403 -76.2319 263° West 413 475 35,600 1,220 Climbing Boston Center
Tue 12:37:27 PM 43.9292 -76.3783 264° West 405 466 36,700 1,026 Climbing Boston Center
Tue 12:38:27 PM 43.9158 -76.5217 263° West 395 455 37,600 510 Climbing Boston Center
Tue 12:40:00 PM 43.8833 -76.7167 257° West 380 437 38,000 157 Climbing Toronto Center
Tue 12:41:00 PM 43.8667 -76.8500 260° West 390 449 38,000  Level Toronto Center
Tue 12:42:00 PM 43.8500 -77.0167 262° West 400 460 38,000  Level Toronto Center
Tue 12:43:00 PM 43.8333 -77.1833 262° West 400 460 38,000  Level Toronto Center
Tue 12:44:00 PM 43.8167 -77.3167 260° West 400 460 38,000  Level Toronto Center
Tue 12:45:00 PM 43.8167 -77.4833 270° West 410 472 38,000  Level Toronto Center
Tue 12:46:00 PM 43.8000 -77.6500 262° West 410 472 38,000  Level Toronto Center
Tue 12:47:00 PM 43.7833 -77.7833 260° West 410 472 38,000  Level Toronto Center
Tue 12:48:00 PM 43.7500 -77.9500 255° West 410 472 38,000  Level Toronto Center
Tue 12:49:00 PM 43.7333 -78.1167 262° West 410 472 38,000  Level Toronto Center
Tue 12:50:00 PM 43.7167 -78.2667 261° West 410 472 38,000  Level Toronto Center
Tue 12:51:00 PM 43.7000 -78.4333 262° West 420 483 38,000  Level Toronto Center
Tue 12:52:00 PM 43.7000 -78.6000 270° West 420 483 38,000  Level Toronto Center
Tue 12:53:00 PM 43.6833 -78.7333 260° West 420 483 38,000  Level Toronto Center
Tue 12:54:00 PM 43.6667 -78.9000 262° West 410 472 38,000  Level Toronto Center
Tue 12:55:00 PM 43.6500 -79.0500 261° West 410 472 38,000  Level Toronto Center
Tue 12:56:00 PM 43.6333 -79.2167 262° West 410 472 38,000  Level Toronto Center
Tue 12:57:00 PM 43.6167 -79.3500 260° West 410 472 38,000  Level Toronto Center
Tue 12:58:00 PM 43.6000 -79.5167 262° West 410 472 38,000  Level Toronto Center
Tue 12:59:00 PM 43.5833 -79.6833 262° West 430 495 38,000  Level Toronto Center
Tue 01:00:00 PM 43.5710 -79.8139 263° West  Level FlightAware Approximate
Tue 01:01:00 PM 43.5500 -80.0000 263° West 400 460 38,000  Level Toronto Center
Tue 01:02:00 PM 43.5333 -80.1333 260° West 400 460 38,000  Level Toronto Center
Tue 01:03:00 PM 43.5333 -80.3000 270° West 390 449 38,000  Level Toronto Center
Tue 01:04:00 PM 43.5167 -80.4333 260° West 390 449 38,000  Level Toronto Center
Tue 01:05:00 PM 43.5000 -80.6000 262° West 390 449 38,000  Level Toronto Center
Tue 01:06:00 PM 43.4833 -80.7333 260° West 390 449 38,000  Level Toronto Center
Tue 01:07:00 PM 43.4333 -80.9000 248° West 400 460 38,000  Level Toronto Center
Tue 01:08:00 PM 43.3833 -81.0333 243° Southwest 410 472 38,000  Level Toronto Center
Tue 01:09:00 PM 43.3333 -81.1667 243° Southwest 420 483 38,000  Level Toronto Center
Tue 01:10:00 PM 43.2667 -81.3000 236° Southwest 420 483 38,000  Level Toronto Center
Tue 01:11:00 PM 43.2167 -81.4333 243° Southwest 420 483 38,000  Level Toronto Center
Tue 01:12:00 PM 43.1500 -81.5833 239° Southwest 420 483 38,000  Level Toronto Center
Tue 01:13:00 PM 43.1000 -81.7167 243° Southwest 410 472 38,000  Level Toronto Center
Tue 01:14:00 PM 43.0500 -81.8500 243° Southwest 410 472 38,000  Level Toronto Center
Tue 01:15:00 PM 43.0000 -82.0000 246° West 410 472 38,000  Level Toronto Center
Tue 01:16:00 PM 43.0000 -82.1333 270° West 420 483 38,000  Level Toronto Center
Tue 01:17:00 PM 43.0000 -82.3167 270° West 410 472 38,000  Level Toronto Center
Tue 01:18:00 PM 43.0000 -82.4667 270° West 410 472 38,000  Level Toronto Center
Tue 01:19:00 PM 43.0000 -82.6167 270° West 410 472 38,000 -500 Level Toronto Center
Tue 01:20:00 PM 42.9833 -82.7833 262° West 410 472 37,000 -1,000 Descending Toronto Center
Tue 01:21:00 PM 42.9833 -82.9333 270° West 410 472 36,000 -1,050 Descending Toronto Center
Tue 01:22:00 PM 42.9833 -83.1000 270° West 410 472 34,900 -1,042 Descending Toronto Center
Tue 01:23:24 PM 43.0056 -83.3031 279° West 420 483 33,500 -1,042 Descending Cleveland Center
Tue 01:24:24 PM 43.0350 -83.4550 285° West 420 483 32,400 -750 Descending Cleveland Center
Tue 01:25:24 PM 43.0644 -83.6069 285° West 415 478 32,000 -200 Descending Cleveland Center
Tue 01:26:24 PM 43.0497 -83.7681 263° West 415 478 32,000  Level Cleveland Center
Tue 01:27:24 PM 43.0183 -83.9228 255° West 419 482 32,000  Level Cleveland Center
Tue 01:28:24 PM 42.9867 -84.0772 254° West 430 495 32,000  Level Cleveland Center
Tue 01:29:24 PM 42.9547 -84.2344 255° West 430 495 32,000  Level Cleveland Center
Tue 01:30:24 PM 42.9181 -84.4022 253° West 430 495 32,000  Level Cleveland Center
Tue 01:31:32 PM 42.8853 -84.5808 256° West 429 494 32,000  Level Chicago Center
Tue 01:32:34 PM 42.8689 -84.7383 262° West 423 487 32,000  Level Chicago Center
Tue 01:33:37 PM 42.8531 -84.8936 262° West 416 479 32,000  Level Chicago Center
Tue 01:34:39 PM 42.8358 -85.0497 261° West 416 479 32,000 -145 Level Chicago Center
Tue 01:35:41 PM 42.8186 -85.2075 262° West 420 483 31,700 -1,306 Descending Chicago Center
Tue 01:36:43 PM 42.8008 -85.3675 261° West 426 490 29,300 -2,565 Descending Chicago Center
Tue 01:37:45 PM 42.7761 -85.5606 260° West 432 497 26,400 -2,613 Descending Chicago Center
Tue 01:38:47 PM 42.7467 -85.7183 256° West 429 494 23,900 -2,371 Descending Chicago Center
Tue 01:39:49 PM 42.7197 -85.8700 256° West 414 476 21,500 -1,887 Descending Chicago Center
Tue 01:40:51 PM 42.6939 -86.0111 256° West 389 448 20,000 -726 Descending Chicago Center
Tue 01:41:53 PM 42.6689 -86.1475 256° West 374 430 20,000  Level Chicago Center
Tue 01:42:55 PM 42.6453 -86.2764 256° West 357 411 20,000  Level Chicago Center
Tue 01:43:57 PM 42.6231 -86.3922 255° West 324 373 20,000  Level Chicago Center
Tue 01:44:59 PM 42.6317 -86.5075 276° West 319 367 20,000 -97 Level Chicago Center
Tue 01:46:01 PM 42.6806 -86.6408 297° West 326 375 19,800 -484 Descending Chicago Center
Tue 01:47:03 PM 42.6750 -86.7603 266° West 323 372 19,000 -968 Descending Chicago Center
Tue 01:48:05 PM 42.6639 -86.8706 262° West 299 344 17,800 -1,548 Descending Chicago Center
Tue 01:49:07 PM 42.6056 -86.9531 226° Southwest 314 361 15,800 -1,935 Descending Chicago Center
Tue 01:50:09 PM 42.5433 -87.0172 217° Southwest 288 331 13,800 -2,177 Descending Chicago Center
Tue 01:51:11 PM 42.4853 -87.0803 219° Southwest 272 313 11,300 -2,516 Descending Chicago Center
Tue 01:52:13 PM 42.4389 -87.1775 237° Southwest 268 308 8,600 -2,226 Descending Chicago Center
Tue 01:53:15 PM 42.4139 -87.2669 249° West 257 296 6,700 -1,258 Descending Chicago Center
Tue 01:54:17 PM 42.3594 -87.3217 217° Southwest 253 291 6,000 -339 Descending Chicago Center
Tue 01:55:19 PM 42.2964 -87.3739 211° Southwest 254 292 6,000  Level Chicago Center
Tue 01:56:21 PM 42.2367 -87.4250 212° Southwest 255 293 6,000 -484 Level Chicago Center
Tue 01:57:23 PM 42.1775 -87.4731 211° Southwest 252 290 5,000 -968 Descending Chicago Center
Tue 01:58:25 PM 42.1172 -87.5183 209° Southwest 250 288 4,000 -484 Descending Chicago Center
Tue 01:59:27 PM 42.0644 -87.5775 220° Southwest 214 246 4,000 -279 Level Chicago Center
Tue 02:00:34 PM 42.0333 -87.6500 240° Southwest 210 242 3,400 -767 Descending Chicago TRACON
Tue 02:01:40 PM 42.0000 -87.7167 236° Southwest 199 229 2,300 -550 Descending Chicago TRACON
Tue 02:02:34 PM 42.0000 -87.7833 270° West 169 194 2,300 -350 Level Chicago TRACON
Tue 02:03:40 PM 42.0000 -87.8333 270° West 129 148 1,600 -667 Descending Chicago TRACON
Tue 02:04:40 PM 42.0000 -87.8833 270° West 131 151 900 -700 Descending Chicago TRACON

Login

Don't have an account? Register now (free) for customized features, flight alerts, and more!